Time;durP1;ratioP1;P1;durP2;ratioP2;P2;SDS_P1;SDS_P2;PMS_P1;PMS_P2;Temp;Humidity;BMP_temperature;BMP_pressure;BME280_temperature;BME280_humidity;BME280_pressure;Samples;Min_cycle;Max_cycle;Signal;HPM_P1;HPM_P2
2022/12/01 00:02:11;;;;;;;108.63;48.63;;;9.00;99.90;;;;;;5075022;28;20036;-62
2022/12/01 00:04:36;;;;;;;105.75;47.35;;;8.80;99.90;;;;;;5047302;28;20045;-62
2022/12/01 00:07:02;;;;;;;107.20;49.85;;;8.60;99.90;;;;;;5055987;28;20454;-62
2022/12/01 00:12:11;;;;;;;107.93;49.67;;;8.10;99.90;;;;;;5055825;28;20091;-62
2022/12/01 00:14:37;;;;;;;114.25;50.72;;;8.40;99.90;;;;;;5068286;28;20049;-62
2022/12/01 00:17:04;;;;;;;104.97;50.90;;;8.20;99.90;;;;;;5075328;28;20041;-62
2022/12/01 00:19:29;;;;;;;107.47;53.85;;;8.60;99.90;;;;;;5075457;28;20538;-62
2022/12/01 00:21:55;;;;;;;112.60;53.42;;;8.70;99.90;;;;;;5075292;28;20032;-62
2022/12/01 00:24:22;;;;;;;105.28;52.97;;;8.00;99.90;;;;;;5074344;28;20032;-62
2022/12/01 00:26:48;;;;;;;110.75;55.25;;;8.50;99.90;;;;;;5064824;28;20040;-62
2022/12/01 00:29:14;;;;;;;109.32;52.85;;;7.90;99.90;;;;;;5055483;28;20537;-63
2022/12/01 00:31:39;;;;;;;102.82;51.88;;;7.70;99.90;;;;;;5057717;28;20036;-63
2022/12/01 00:34:05;;;;;;;115.20;53.20;;;8.10;99.90;;;;;;5074520;28;20037;-63
2022/12/01 00:36:31;;;;;;;99.70;48.83;;;8.30;99.90;;;;;;5075336;28;20119;-63
2022/12/01 00:38:56;;;;;;;110.43;51.95;;;8.10;99.90;;;;;;5073176;28;20044;-62
2022/12/01 00:41:25;;;;;;;108.00;50.92;;;7.80;99.90;;;;;;5072474;28;20032;-62
2022/12/01 00:43:51;;;;;;;100.03;51.67;;;8.00;99.90;;;;;;5073928;28;20040;-62
2022/12/01 00:46:17;;;;;;;104.10;53.33;;;8.60;99.90;;;;;;5069751;28;20051;-62
2022/12/01 00:48:43;;;;;;;112.05;54.50;;;8.50;99.90;;;;;;5055383;28;20494;-62
2022/12/01 00:51:08;;;;;;;110.75;53.72;;;8.20;99.90;;;;;;5063706;28;20040;-62
2022/12/01 00:53:34;;;;;;;104.68;51.95;;;8.00;99.90;;;;;;5075039;28;20174;-62
2022/12/01 00:55:59;;;;;;;99.65;51.55;;;8.90;99.90;;;;;;5073866;28;20045;-62
2022/12/01 00:58:25;;;;;;;107.57;52.33;;;8.80;99.90;;;;;;5071606;28;20037;-62
2022/12/01 01:00:59;;;;;;;95.63;50.00;;;8.90;99.90;;;;;;5054899;28;20491;-62
2022/12/01 01:03:26;;;;;;;98.28;48.53;;;8.30;99.90;;;;;;5069906;28;20486;-62
2022/12/01 01:05:52;;;;;;;103.25;49.08;;;8.60;99.90;;;;;;5074110;28;20048;-63
2022/12/01 01:08:17;;;;;;;100.15;49.45;;;8.90;99.90;;;;;;5071602;28;20028;-62
2022/12/01 01:10:45;;;;;;;92.22;49.03;;;8.10;99.90;;;;;;5073782;28;20036;-62
2022/12/01 01:13:12;;;;;;;95.32;49.63;;;8.90;99.90;;;;;;5072656;28;20460;-62
2022/12/01 01:15:38;;;;;;;92.13;47.13;;;8.10;99.90;;;;;;5074265;28;20068;-62
2022/12/01 01:18:04;;;;;;;99.55;52.67;;;8.20;99.90;;;;;;5074537;28;20511;-62
2022/12/01 01:20:32;;;;;;;104.90;51.25;;;8.90;99.90;;;;;;5073652;28;20494;-62
2022/12/01 01:22:57;;;;;;;105.78;52.17;;;9.00;99.90;;;;;;5073545;28;20036;-62
2022/12/01 01:25:24;;;;;;;106.47;53.35;;;8.90;99.90;;;;;;5072989;28;20371;-63
2022/12/01 01:27:50;;;;;;;106.15;53.28;;;9.60;99.90;;;;;;5074260;28;20099;-64
2022/12/01 01:30:16;;;;;;;100.40;53.55;;;8.60;99.90;;;;;;5073251;28;20131;-62
2022/12/01 01:32:42;;;;;;;102.55;51.92;;;8.70;99.90;;;;;;5074344;28;20040;-62
2022/12/01 01:35:08;;;;;;;96.78;49.75;;;9.20;99.90;;;;;;5073722;28;20036;-62
2022/12/01 01:37:34;;;;;;;92.40;47.60;;;8.70;99.90;;;;;;5072133;28;20041;-62
2022/12/01 01:39:59;;;;;;;91.15;45.50;;;8.80;99.90;;;;;;5073984;28;20123;-62
2022/12/01 01:42:25;;;;;;;97.20;47.72;;;9.00;99.90;;;;;;5074058;28;20047;-62
2022/12/01 01:44:50;;;;;;;95.15;48.80;;;8.40;99.90;;;;;;5074153;28;20036;-62
2022/12/01 01:47:49;;;;;;;100.07;49.33;;;8.40;99.90;;;;;;5071842;28;20105;-62
2022/12/01 01:50:19;;;;;;;94.97;47.40;;;8.40;99.90;;;;;;5049036;28;20049;-62
2022/12/01 01:52:48;;;;;;;93.70;46.33;;;8.60;99.90;;;;;;5073832;28;20127;-62
2022/12/01 01:55:15;;;;;;;93.35;46.40;;;8.90;99.90;;;;;;5072506;28;20423;-62
2022/12/01 01:57:42;;;;;;;94.55;48.15;;;8.40;99.90;;;;;;5074015;28;20124;-62
2022/12/01 02:00:11;;;;;;;100.65;48.85;;;8.30;99.90;;;;;;5073141;28;20075;-62
2022/12/01 02:02:44;;;;;;;93.82;47.40;;;8.90;99.90;;;;;;5073630;28;20040;-62
2022/12/01 02:05:21;;;;;;;97.72;46.97;;;9.00;99.90;;;;;;5069757;28;20044;-62
2022/12/01 02:07:48;;;;;;;87.32;44.58;;;8.40;99.90;;;;;;5071131;28;20082;-62
2022/12/01 02:10:21;;;;;;;85.50;41.97;;;8.80;99.90;;;;;;5073472;28;20032;-62
2022/12/01 02:12:46;;;;;;;92.90;44.17;;;8.30;99.90;;;;;;5073503;28;20098;-63
2022/12/01 02:15:23;;;;;;;93.53;43.85;;;8.40;99.90;;;;;;5073695;28;20040;-62
2022/12/01 02:18:24;;;;;;;97.22;45.80;;;8.10;99.90;;;;;;5070202;28;20102;-63
2022/12/01 02:21:20;;;;;;;95.10;44.55;;;8.80;99.90;;;;;;5071474;28;20048;-62
2022/12/01 02:24:13;;;;;;;101.65;45.47;;;8.80;99.90;;;;;;5073366;28;20055;-62
2022/12/01 02:26:57;;;;;;;94.60;46.38;;;8.70;99.90;;;;;;5053330;28;20119;-62
2022/12/01 02:29:40;;;;;;;95.18;48.33;;;8.30;99.90;;;;;;5053575;28;20048;-62
2022/12/01 02:32:17;;;;;;;103.97;50.33;;;8.90;99.90;;;;;;5065353;28;20542;-62
2022/12/01 02:35:09;;;;;;;105.40;49.60;;;8.80;99.90;;;;;;5060962;28;20036;-62
2022/12/01 02:37:54;;;;;;;109.07;51.63;;;8.10;99.90;;;;;;5053210;28;20041;-62
2022/12/01 02:40:32;;;;;;;108.82;50.90;;;8.50;99.90;;;;;;5064744;28;20032;-62
2022/12/01 02:43:04;;;;;;;98.78;49.45;;;9.00;99.90;;;;;;5071971;28;20041;-63
2022/12/01 02:45:42;;;;;;;107.50;50.25;;;8.40;99.90;;;;;;5070535;28;20052;-62
2022/12/01 02:48:13;;;;;;;100.68;51.08;;;8.80;99.90;;;;;;5063669;28;20129;-62
2022/12/01 02:50:40;;;;;;;99.28;49.15;;;8.50;99.90;;;;;;5052936;28;20033;-62
2022/12/01 02:53:09;;;;;;;110.38;51.40;;;8.30;99.90;;;;;;5070569;28;20041;-63
2022/12/01 02:55:34;;;;;;;98.80;48.42;;;9.10;99.90;;;;;;5072164;28;20040;-63
2022/12/01 02:58:00;;;;;;;96.97;48.58;;;8.50;99.90;;;;;;5072420;28;20096;-62
2022/12/01 03:00:26;;;;;;;98.32;47.97;;;9.20;99.90;;;;;;5066228;28;20044;-62
2022/12/01 03:03:26;;;;;;;111.97;50.00;;;8.80;99.90;;;;;;5071388;28;20040;-62
2022/12/01 03:06:04;;;;;;;99.90;48.05;;;8.40;99.90;;;;;;5067379;28;20040;-63
2022/12/01 03:08:44;;;;;;;94.70;48.60;;;8.30;99.90;;;;;;5072246;28;20079;-63
2022/12/01 03:11:25;;;;;;;96.50;46.83;;;9.10;99.90;;;;;;5052639;28;20518;-62
2022/12/01 03:14:14;;;;;;;102.55;46.83;;;8.70;99.90;;;;;;5052404;28;20041;-63
2022/12/01 03:16:53;;;;;;;91.28;45.67;;;8.30;99.90;;;;;;5063881;28;20059;-63
2022/12/01 03:19:40;;;;;;;110.22;48.35;;;9.10;99.90;;;;;;5072541;28;20032;-62
2022/12/01 03:22:17;;;;;;;111.78;47.55;;;8.60;99.90;;;;;;5072259;28;20071;-62
2022/12/01 03:24:46;;;;;;;111.22;46.35;;;8.80;99.90;;;;;;5072103;28;20036;-62
2022/12/01 03:27:13;;;;;;;117.65;49.80;;;8.80;99.90;;;;;;5067200;28;20045;-62
2022/12/01 03:29:43;;;;;;;110.22;50.72;;;9.00;99.90;;;;;;5058484;28;20051;-62
2022/12/01 03:32:33;;;;;;;117.70;49.70;;;9.30;99.90;;;;;;5072202;28;20567;-63
2022/12/01 03:35:09;;;;;;;117.55;50.72;;;8.90;99.90;;;;;;5071904;28;20106;-62
2022/12/01 03:37:40;;;;;;;;;;;8.80;99.90;;;;;;5070806;28;20082;-62
2022/12/01 03:40:10;;;;;;;118.35;49.67;;;9.00;99.90;;;;;;5071976;28;19923;-62
2022/12/01 03:42:49;;;;;;;109.72;48.75;;;8.40;99.90;;;;;;5072121;28;20124;-62
2022/12/01 03:45:18;;;;;;;114.03;49.75;;;9.40;99.90;;;;;;5072132;28;20112;-62
2022/12/01 03:47:44;;;;;;;125.00;51.83;;;9.30;99.90;;;;;;5072088;28;20086;-63
2022/12/01 03:50:12;;;;;;;114.60;50.85;;;8.80;99.90;;;;;;5071837;28;20517;-63
2022/12/01 03:53:05;;;;;;;117.35;53.30;;;9.20;99.90;;;;;;5071551;28;20111;-62
2022/12/01 03:55:36;;;;;;;111.88;49.47;;;8.60;99.90;;;;;;5070322;28;20040;-62
2022/12/01 03:58:11;;;;;;;123.50;51.90;;;9.00;99.90;;;;;;5071946;28;20036;-63
2022/12/01 04:00:37;;;;;;;132.52;54.03;;;8.50;99.90;;;;;;5051893;28;20048;-62
2022/12/01 04:03:03;;;;;;;120.65;52.08;;;8.80;99.90;;;;;;5052042;28;20040;-62
2022/12/01 04:05:31;;;;;;;125.35;54.25;;;9.20;99.90;;;;;;5054142;28;20041;-62
2022/12/01 04:07:57;;;;;;;115.35;51.08;;;8.90;99.90;;;;;;5071206;28;20086;-62
2022/12/01 04:10:22;;;;;;;118.40;49.03;;;8.90;99.90;;;;;;5070927;28;20490;-62
2022/12/01 04:12:48;;;;;;;118.90;47.38;;;9.10;99.90;;;;;;5071599;28;20075;-62
2022/12/01 04:15:15;;;;;;;120.15;50.40;;;8.50;99.90;;;;;;5071231;28;20482;-63
2022/12/01 04:17:43;;;;;;;123.65;53.33;;;8.80;99.90;;;;;;5054099;28;20124;-62
2022/12/01 04:20:12;;;;;;;136.20;55.88;;;9.30;99.90;;;;;;5070572;28;20071;-62
2022/12/01 04:22:38;;;;;;;136.30;56.40;;;8.40;99.90;;;;;;5070749;28;20036;-62
2022/12/01 04:25:05;;;;;;;146.55;55.95;;;8.90;99.90;;;;;;5071678;28;20540;-62
2022/12/01 04:27:31;;;;;;;132.48;54.95;;;8.60;99.90;;;;;;5070991;28;20036;-62
2022/12/01 04:29:57;;;;;;;134.45;57.28;;;8.40;99.90;;;;;;5071515;28;20036;-62
2022/12/01 04:32:22;;;;;;;142.70;57.80;;;8.90;99.90;;;;;;5071651;28;20444;-62
2022/12/01 04:34:48;;;;;;;149.65;56.42;;;9.30;99.90;;;;;;5071729;28;20116;-62
2022/12/01 04:37:14;;;;;;;136.75;56.13;;;8.90;99.90;;;;;;5069165;28;20056;-62
2022/12/01 04:39:40;;;;;;;153.25;57.22;;;9.50;99.90;;;;;;5071515;28;20554;-63
2022/12/01 04:42:06;;;;;;;137.52;54.75;;;9.30;99.90;;;;;;5072882;28;20529;-63
2022/12/01 04:44:32;;;;;;;138.68;54.15;;;8.50;99.90;;;;;;5075118;28;20033;-62
2022/12/01 04:46:57;;;;;;;138.38;56.47;;;8.90;99.90;;;;;;5073378;28;20047;-62
2022/12/01 04:49:23;;;;;;;147.65;57.50;;;8.90;99.90;;;;;;5058469;28;20040;-62
2022/12/01 04:51:49;;;;;;;154.20;56.45;;;8.60;99.90;;;;;;5063721;28;20079;-62
2022/12/01 04:54:15;;;;;;;145.73;56.20;;;9.40;99.90;;;;;;5055043;28;20106;-62
2022/12/01 04:56:41;;;;;;;135.80;54.80;;;9.10;99.90;;;;;;5064290;28;20552;-62
2022/12/01 04:59:07;;;;;;;144.05;57.72;;;8.90;99.90;;;;;;5074618;28;20071;-62
2022/12/01 05:01:32;;;;;;;134.70;57.08;;;8.50;99.90;;;;;;5075132;28;20094;-62
2022/12/01 05:03:58;;;;;;;141.57;57.13;;;9.20;99.90;;;;;;5074882;28;20039;-62
2022/12/01 05:06:26;;;;;;;140.50;56.22;;;9.40;99.90;;;;;;5072823;28;20090;-62
2022/12/01 05:08:56;;;;;;;135.20;56.17;;;8.50;99.90;;;;;;5074530;28;20119;-62
2022/12/01 05:11:22;;;;;;;135.10;55.25;;;9.80;99.90;;;;;;5074688;28;20119;-63
2022/12/01 05:13:49;;;;;;;133.38;55.08;;;9.30;99.90;;;;;;5073663;28;20058;-62
2022/12/01 05:16:20;;;;;;;128.27;57.85;;;8.70;99.90;;;;;;5072857;28;20032;-62
2022/12/01 05:18:48;;;;;;;135.73;56.97;;;8.50;99.90;;;;;;5062878;28;20055;-62
2022/12/01 05:21:13;;;;;;;136.13;56.97;;;9.30;99.90;;;;;;5053021;28;20048;-65
2022/12/01 05:23:39;;;;;;;129.35;52.13;;;8.70;99.90;;;;;;5072338;28;20394;-62
2022/12/01 05:26:06;;;;;;;136.80;54.03;;;8.60;99.90;;;;;;5074428;28;20459;-62
2022/12/01 05:28:32;;;;;;;123.18;53.05;;;8.80;99.90;;;;;;5073025;28;20415;-62
2022/12/01 05:30:58;;;;;;;128.95;51.97;;;9.50;99.90;;;;;;5074445;28;20039;-62
2022/12/01 05:33:25;;;;;;;128.63;52.08;;;9.40;99.90;;;;;;5073506;28;20060;-63
2022/12/01 05:35:51;;;;;;;135.52;51.15;;;8.70;99.90;;;;;;5072882;28;20086;-62
2022/12/01 05:38:17;;;;;;;121.60;48.60;;;8.70;99.90;;;;;;5073982;28;20123;-62
2022/12/01 05:40:49;;;;;;;117.10;48.35;;;9.40;99.90;;;;;;5074168;28;20153;-62
2022/12/01 05:43:14;;;;;;;123.88;48.30;;;8.80;99.90;;;;;;5072062;28;20352;-62
2022/12/01 05:45:40;;;;;;;126.18;46.85;;;8.80;99.90;;;;;;5074348;28;20368;-63
2022/12/01 05:48:05;;;;;;;119.75;44.22;;;9.20;99.90;;;;;;5066181;28;20064;-62
2022/12/01 05:50:31;;;;;;;119.15;44.97;;;8.90;99.90;;;;;;5054011;28;20094;-63
2022/12/01 05:52:57;;;;;;;114.00;44.85;;;9.30;99.90;;;;;;5070177;28;20123;-62
2022/12/01 05:55:22;;;;;;;116.00;46.08;;;9.30;99.90;;;;;;5070845;28;20119;-63
2022/12/01 05:57:48;;;;;;;112.07;46.38;;;8.80;99.90;;;;;;5073718;28;20048;-62
2022/12/01 06:00:14;;;;;;;117.55;48.25;;;9.40;99.90;;;;;;5073808;28;20116;-62
2022/12/01 06:02:40;;;;;;;121.90;48.45;;;8.70;99.90;;;;;;5073147;28;20387;-62
2022/12/01 06:05:06;;;;;;;127.50;48.53;;;8.60;99.90;;;;;;5073739;28;20093;-62
2022/12/01 06:07:33;;;;;;;111.53;48.30;;;9.10;99.90;;;;;;5073420;28;20032;-62
2022/12/01 06:09:59;;;;;;;124.60;48.92;;;8.70;99.90;;;;;;5071650;28;20405;-63
2022/12/01 06:12:25;;;;;;;120.30;48.97;;;9.10;99.90;;;;;;5065731;28;20036;-63
2022/12/01 06:14:50;;;;;;;129.57;49.03;;;9.40;99.90;;;;;;5070084;28;20056;-63
2022/12/01 06:17:16;;;;;;;126.93;50.03;;;8.70;99.90;;;;;;5071727;28;20097;-62
2022/12/01 06:19:42;;;;;;;121.97;49.25;;;9.30;99.90;;;;;;5073458;28;20115;-63
2022/12/01 06:22:08;;;;;;;124.50;46.47;;;9.20;99.90;;;;;;5069890;28;20041;-62
2022/12/01 06:24:33;;;;;;;109.30;46.33;;;8.90;99.90;;;;;;5073371;28;20052;-62
2022/12/01 06:26:59;;;;;;;110.00;44.45;;;8.80;99.90;;;;;;5071687;28;20040;-62
2022/12/01 06:29:24;;;;;;;116.78;46.70;;;9.20;99.90;;;;;;5073448;28;20032;-62
2022/12/01 06:31:50;;;;;;;115.13;46.72;;;9.10;99.90;;;;;;5071174;28;20032;-63
2022/12/01 06:34:16;;;;;;;127.57;49.30;;;9.20;99.90;;;;;;5071922;28;20123;-62
2022/12/01 06:36:41;;;;;;;134.02;48.72;;;8.80;99.90;;;;;;5072518;28;20079;-62
2022/12/01 06:39:08;;;;;;;120.40;47.00;;;9.10;99.90;;;;;;5071319;28;20037;-62
2022/12/01 06:41:37;;;;;;;130.27;50.55;;;8.70;99.90;;;;;;5072709;28;20036;-62
2022/12/01 06:44:04;;;;;;;122.82;48.50;;;8.50;99.90;;;;;;5073151;28;20093;-62
2022/12/01 06:46:29;;;;;;;134.85;49.58;;;8.80;99.90;;;;;;5073285;28;20032;-62
2022/12/01 06:48:55;;;;;;;125.32;49.22;;;9.00;99.90;;;;;;5065782;28;20117;-62
2022/12/01 06:51:21;;;;;;;128.15;50.72;;;8.30;99.90;;;;;;5072140;28;20098;-63
2022/12/01 06:53:47;;;;;;;125.43;50.80;;;9.00;99.90;;;;;;5072573;28;20081;-62
2022/12/01 06:56:12;;;;;;;130.70;51.63;;;8.30;99.90;;;;;;5072433;28;20486;-62
2022/12/01 06:58:38;;;;;;;128.55;50.80;;;9.00;99.90;;;;;;5071517;28;20552;-63
2022/12/01 07:01:11;;;;;;;120.18;49.83;;;8.80;99.90;;;;;;5072859;28;20040;-62
2022/12/01 07:03:37;;;;;;;132.35;50.67;;;8.30;99.90;;;;;;5072524;28;20562;-62
2022/12/01 07:06:03;;;;;;;130.00;50.85;;;8.10;99.90;;;;;;5071780;28;20041;-63
2022/12/01 07:08:30;;;;;;;1983.20;185.07;;;8.30;99.90;;;;;;5071571;28;20061;-62
2022/12/01 07:11:04;;;;;;;133.48;51.15;;;8.10;99.90;;;;;;5070637;28;20075;-62
2022/12/01 07:13:30;;;;;;;126.43;48.22;;;8.80;99.90;;;;;;5069415;28;20047;-62
2022/12/01 07:15:56;;;;;;;118.80;47.65;;;8.80;99.90;;;;;;5072236;28;20036;-64
2022/12/01 07:18:21;;;;;;;121.97;47.70;;;8.30;99.90;;;;;;5065646;28;20028;-63
2022/12/01 07:20:47;;;;;;;111.07;45.40;;;8.30;99.90;;;;;;5068820;28;20035;-63
2022/12/01 07:23:13;;;;;;;121.43;48.05;;;9.00;99.90;;;;;;5068816;28;20051;-62
2022/12/01 07:25:38;;;;;;;116.43;45.92;;;8.60;99.90;;;;;;5064419;28;20158;-62
2022/12/01 07:28:04;;;;;;;118.07;46.25;;;8.30;99.90;;;;;;5060917;28;20036;-62
2022/12/01 07:30:29;;;;;;;107.63;43.47;;;8.80;99.90;;;;;;5067305;28;20131;-62
2022/12/01 07:32:55;;;;;;;106.82;42.00;;;8.50;99.90;;;;;;5067728;28;20038;-63
2022/12/01 07:35:21;;;;;;;104.80;42.65;;;8.40;99.90;;;;;;5059478;28;20482;-62
2022/12/01 07:37:47;;;;;;;103.65;42.67;;;8.80;99.90;;;;;;5065108;28;20032;-62
2022/12/01 07:40:13;;;;;;;129.50;47.20;;;8.80;99.90;;;;;;5065392;28;20055;-62
2022/12/01 07:42:42;;;;;;;123.63;46.85;;;8.80;99.90;;;;;;5064889;28;20123;-63
2022/12/01 07:45:07;;;;;;;117.82;45.97;;;9.00;99.90;;;;;;5067686;28;20033;-63
2022/12/01 07:47:33;;;;;;;131.68;48.65;;;8.30;99.90;;;;;;5065132;28;20040;-66
2022/12/01 07:49:59;;;;;;;135.45;50.17;;;8.30;99.90;;;;;;5062368;28;20036;-62
2022/12/01 07:52:25;;;;;;;128.13;47.03;;;8.30;99.90;;;;;;5066484;28;20106;-63
2022/12/01 07:54:51;;;;;;;121.72;46.88;;;8.40;99.90;;;;;;5061811;28;20615;-63
2022/12/01 07:57:18;;;;;;;110.07;45.97;;;8.50;99.90;;;;;;5066814;28;20098;-63
2022/12/01 07:59:43;;;;;;;105.32;42.85;;;8.50;99.90;;;;;;5067165;28;20489;-63
2022/12/01 08:02:09;;;;;;;114.93;45.50;;;9.30;99.90;;;;;;5064399;28;20046;-63
2022/12/01 08:04:35;;;;;;;112.15;44.85;;;8.50;99.90;;;;;;5060532;28;20036;-63
2022/12/01 08:07:00;;;;;;;119.90;45.72;;;9.40;99.90;;;;;;5062081;28;20470;-63
2022/12/01 08:09:26;;;;;;;112.32;44.83;;;8.70;99.90;;;;;;5069691;28;20040;-63
2022/12/01 08:11:51;;;;;;;126.82;43.97;;;8.80;99.90;;;;;;5069918;28;20037;-64
2022/12/01 08:14:17;;;;;;;118.15;44.33;;;9.50;99.90;;;;;;5065488;28;20101;-63
2022/12/01 08:16:42;;;;;;;120.88;45.58;;;9.40;99.90;;;;;;5066964;28;20121;-62
2022/12/01 08:19:11;;;;;;;106.30;42.65;;;8.70;99.90;;;;;;5070866;28;20064;-65
2022/12/01 08:21:37;;;;;;;108.35;43.05;;;9.20;99.90;;;;;;5071250;28;20129;-63
2022/12/01 08:24:03;;;;;;;114.38;42.97;;;9.60;99.90;;;;;;5072562;28;20423;-62
2022/12/01 08:26:29;;;;;;;119.32;43.60;;;9.40;99.90;;;;;;5060727;28;20045;-62
2022/12/01 08:28:56;;;;;;;112.13;42.58;;;9.50;99.90;;;;;;5071274;28;20041;-63
2022/12/01 08:31:31;;;;;;;105.47;42.05;;;9.50;99.90;;;;;;5067060;28;20040;-63
2022/12/01 08:33:57;;;;;;;102.40;39.40;;;9.50;99.90;;;;;;5066378;28;20462;-63
2022/12/01 08:36:23;;;;;;;85.00;37.65;;;9.40;99.90;;;;;;5062560;28;20041;-63
2022/12/01 08:38:52;;;;;;;94.97;38.85;;;9.40;99.90;;;;;;5065017;28;20480;-62
2022/12/01 08:41:19;;;;;;;88.03;38.03;;;8.80;99.90;;;;;;5063090;28;20029;-63
2022/12/01 08:43:44;;;;;;;89.90;36.38;;;8.90;99.90;;;;;;5070697;28;20029;-63
2022/12/01 08:46:13;;;;;;;84.63;36.25;;;9.30;99.90;;;;;;5064445;28;20036;-63
2022/12/01 08:48:39;;;;;;;86.45;37.40;;;9.10;99.90;;;;;;5071586;28;20089;-64
2022/12/01 08:51:07;;;;;;;91.90;40.92;;;8.80;99.90;;;;;;5069379;28;20045;-62
2022/12/01 08:53:35;;;;;;;78.00;35.90;;;9.30;99.90;;;;;;5068090;28;20094;-62
2022/12/01 08:56:04;;;;;;;65.90;30.63;;;9.40;99.90;;;;;;5068757;28;20044;-63
2022/12/01 08:58:30;;;;;;;64.40;29.88;;;9.20;99.90;;;;;;5073840;28;20040;-62
2022/12/01 09:01:08;;;;;;;58.15;28.83;;;8.90;99.90;;;;;;5070486;28;20505;-63
2022/12/01 09:03:35;;;;;;;55.35;27.08;;;9.20;99.90;;;;;;5074553;28;20071;-63
2022/12/01 09:06:06;;;;;;;54.97;25.70;;;8.90;99.90;;;;;;5068090;28;20036;-62
2022/12/01 09:08:33;;;;;;;54.08;26.02;;;8.90;99.90;;;;;;5063427;28;20041;-63
2022/12/01 09:11:05;;;;;;;49.25;23.65;;;8.90;99.90;;;;;;5065443;28;20457;-63
2022/12/01 09:13:32;;;;;;;45.58;22.60;;;9.30;99.90;;;;;;5072113;28;20189;-63
2022/12/01 09:16:06;;;;;;;44.50;21.27;;;9.30;99.90;;;;;;5074247;28;20037;-63
2022/12/01 09:18:32;;;;;;;48.20;23.98;;;9.20;99.90;;;;;;5054577;28;20039;-64
2022/12/01 09:20:58;;;;;;;47.35;23.95;;;9.10;99.90;;;;;;5066084;28;20117;-63
2022/12/01 09:23:24;;;;;;;47.05;24.75;;;9.30;99.90;;;;;;5073168;28;20040;-63
2022/12/01 09:25:51;;;;;;;45.75;23.35;;;9.20;99.90;;;;;;5067904;28;20149;-63
2022/12/01 09:28:16;;;;;;;42.70;23.05;;;9.20;99.90;;;;;;5058990;28;20048;-63
2022/12/01 09:30:43;;;;;;;43.20;22.95;;;9.50;99.90;;;;;;5057142;28;20041;-63
2022/12/01 09:33:09;;;;;;;41.60;21.67;;;9.60;99.90;;;;;;5068960;28;20048;-63
2022/12/01 09:35:34;;;;;;;42.92;21.85;;;9.60;99.90;;;;;;5061863;28;20407;-63
2022/12/01 09:38:00;;;;;;;44.00;21.02;;;9.80;99.90;;;;;;5062766;28;20943;-63
2022/12/01 09:40:38;;;;;;;36.90;20.02;;;9.60;99.90;;;;;;5060981;28;20036;-63
2022/12/01 09:43:14;;;;;;;37.40;19.52;;;9.90;99.90;;;;;;5056534;28;20479;-63
2022/12/01 09:45:46;;;;;;;33.65;18.92;;;9.80;99.90;;;;;;5063671;28;20490;-63
2022/12/01 09:48:26;;;;;;;35.08;20.33;;;10.00;99.90;;;;;;5061271;28;20041;-63
2022/12/01 09:50:52;;;;;;;28.52;18.23;;;9.80;99.90;;;;;;5065494;28;20036;-64
2022/12/01 09:53:22;;;;;;;29.67;16.63;;;10.00;99.90;;;;;;5066588;28;20047;-63
2022/12/01 09:55:49;;;;;;;30.55;17.58;;;9.90;99.90;;;;;;5068835;28;20383;-63
2022/12/01 09:58:20;;;;;;;30.33;17.25;;;10.10;99.90;;;;;;5068794;28;20035;-64
2022/12/01 10:00:48;;;;;;;29.45;16.65;;;10.00;99.90;;;;;;5067522;28;20036;-63
2022/12/01 10:03:34;;;;;;;30.67;18.80;;;9.90;99.90;;;;;;5071971;28;20040;-63
2022/12/01 10:06:03;;;;;;;32.22;17.67;;;9.70;99.90;;;;;;5062681;28;20049;-63
2022/12/01 10:08:33;;;;;;;32.13;18.55;;;9.60;99.90;;;;;;5067705;28;20033;-63
2022/12/01 10:11:10;;;;;;;32.92;17.75;;;9.70;99.90;;;;;;5070652;28;20037;-63
2022/12/01 10:13:36;;;;;;;31.55;17.75;;;9.70;99.90;;;;;;5066456;28;20052;-63
2022/12/01 10:16:09;;;;;;;29.80;16.42;;;9.50;99.90;;;;;;5069589;28;20068;-63
2022/12/01 10:18:47;;;;;;;30.50;16.98;;;9.40;99.90;;;;;;5067730;28;20490;-63
2022/12/01 10:21:32;;;;;;;33.47;17.23;;;9.40;99.90;;;;;;5072438;28;20044;-63
2022/12/01 10:24:40;;;;;;;31.15;17.25;;;9.50;99.90;;;;;;5069433;28;20051;-63
2022/12/01 10:27:24;;;;;;;;;;;9.50;99.90;;;;;;5067403;28;20044;-64
2022/12/01 10:30:00;;;;;;;27.05;15.73;;;9.40;99.90;;;;;;5064715;28;20715;-63
2022/12/01 10:32:49;;;;;;;28.60;16.85;;;9.50;99.90;;;;;;5068343;28;20048;-63
2022/12/01 10:35:16;;;;;;;32.30;17.33;;;9.50;99.90;;;;;;5051813;28;20121;-63
2022/12/01 10:37:44;;;;;;;30.60;17.15;;;9.60;99.90;;;;;;5060411;28;20036;-63
2022/12/01 10:40:14;;;;;;;31.10;17.23;;;9.60;99.90;;;;;;5066767;28;20569;-63
2022/12/01 10:42:45;;;;;;;32.35;16.45;;;9.60;99.90;;;;;;5067178;28;20033;-64
2022/12/01 10:45:27;;;;;;;29.45;16.23;;;9.50;99.90;;;;;;5066991;28;20041;-64
2022/12/01 10:48:17;;;;;;;27.48;15.35;;;9.50;99.90;;;;;;5067528;28;20044;-63
2022/12/01 10:50:54;;;;;;;28.92;15.80;;;9.50;99.90;;;;;;5059672;28;20494;-63
2022/12/01 10:53:23;;;;;;;23.42;14.35;;;9.60;99.90;;;;;;5057789;28;20060;-63
2022/12/01 10:55:54;;;;;;;23.15;13.95;;;9.70;99.90;;;;;;5068567;28;20044;-63
2022/12/01 10:58:21;;;;;;;25.65;14.52;;;9.70;99.90;;;;;;5059345;28;20029;-63
2022/12/01 11:00:55;;;;;;;26.70;14.63;;;9.80;99.90;;;;;;5067567;28;20029;-63
2022/12/01 11:03:24;;;;;;;26.63;15.45;;;9.90;99.90;;;;;;5066873;28;20093;-63
2022/12/01 11:05:54;;;;;;;25.00;15.10;;;10.10;99.90;;;;;;5063379;28;20058;-64
2022/12/01 11:08:44;;;;;;;22.63;13.10;;;10.20;99.90;;;;;;5066335;28;20033;-64
2022/12/01 11:11:53;;;;;;;25.42;13.40;;;10.30;99.90;;;;;;5068282;28;20055;-63
2022/12/01 11:14:23;;;;;;;24.05;13.88;;;10.30;99.90;;;;;;5027822;28;20061;-63
2022/12/01 11:16:51;;;;;;;23.85;13.48;;;10.40;99.90;;;;;;5059779;28;20127;-63
2022/12/01 11:19:31;;;;;;;30.00;14.07;;;10.40;99.90;;;;;;5041104;28;20032;-64
2022/12/01 11:22:00;;;;;;;21.45;12.82;;;10.40;99.90;;;;;;5068088;28;20055;-63
2022/12/01 11:24:43;;;;;;;20.05;12.32;;;10.40;99.90;;;;;;5061750;28;20048;-64
2022/12/01 11:27:21;;;;;;;22.55;12.65;;;10.30;99.90;;;;;;5062068;28;20036;-64
2022/12/01 11:29:50;;;;;;;18.67;10.23;;;10.40;99.90;;;;;;5054350;28;20045;-64
2022/12/01 11:32:28;;;;;;;20.38;10.57;;;10.40;99.90;;;;;;5072181;28;20041;-63
2022/12/01 11:35:03;;;;;;;20.35;10.95;;;10.50;99.90;;;;;;5068373;28;20051;-64
2022/12/01 11:37:35;;;;;;;19.02;9.98;;;10.50;99.90;;;;;;5058112;28;20037;-63
2022/12/01 11:40:25;;;;;;;23.90;9.98;;;10.50;99.90;;;;;;5066268;28;20051;-63
2022/12/01 11:43:03;;;;;;;16.38;9.57;;;10.50;99.90;;;;;;5063108;28;20067;-65
2022/12/01 11:45:38;;;;;;;17.83;10.40;;;10.40;99.90;;;;;;5059085;28;20045;-63
2022/12/01 11:48:16;;;;;;;18.13;10.80;;;10.50;99.90;;;;;;5068431;28;20040;-63
2022/12/01 11:50:57;;;;;;;16.35;9.77;;;10.40;54.10;;;;;;5070248;28;20089;-63
2022/12/01 11:53:28;;;;;;;14.32;8.75;;;10.60;1.00;;;;;;5064139;28;20500;-63
2022/12/01 11:56:15;;;;;;;19.52;9.43;;;10.40;99.90;;;;;;5060057;28;20036;-63
2022/12/01 11:58:43;;;;;;;15.30;9.57;;;10.40;99.90;;;;;;5060994;28;20045;-64
2022/12/01 12:01:26;;;;;;;13.25;9.05;;;10.60;1.00;;;;;;5063970;28;20082;-63
2022/12/01 12:04:07;;;;;;;12.38;8.43;;;10.40;99.90;;;;;;5066810;28;20123;-63
2022/12/01 12:07:07;;;;;;;15.93;8.27;;;10.50;1.00;;;;;;5053682;28;20036;-63
2022/12/01 12:10:10;;;;;;;15.43;9.05;;;10.50;99.90;;;;;;5036428;28;20098;-63
2022/12/01 12:12:58;;;;;;;15.20;8.38;;;10.40;1.00;;;;;;5065562;28;20044;-63
2022/12/01 12:15:43;;;;;;;12.20;6.82;;;10.40;1.00;;;;;;5059952;28;20047;-64
2022/12/01 12:18:22;;;;;;;13.63;8.35;;;10.50;99.90;;;;;;5054708;28;20216;-63
2022/12/01 12:20:51;;;;;;;10.88;7.47;;;10.60;99.90;;;;;;5062763;28;20082;-63
2022/12/01 12:23:35;;;;;;;10.57;7.60;;;10.60;1.00;;;;;;5066871;28;20067;-64
2022/12/01 12:26:21;;;;;;;9.27;6.03;;;10.60;1.00;;;;;;5053206;28;20082;-63
2022/12/01 12:29:16;;;;;;;9.45;5.63;;;10.60;1.00;;;;;;5060021;28;20029;-64
2022/12/01 12:32:31;;;;;;;10.35;6.10;;;10.70;99.90;;;;;;5082302;28;20064;-64
2022/12/01 12:35:18;;;;;;;15.88;6.55;;;10.60;85.60;;;;;;5058660;28;20124;-64
2022/12/01 12:37:54;;;;;;;8.90;6.18;;;10.70;1.00;;;;;;5065552;28;20101;-63
2022/12/01 12:40:31;;;;;;;10.60;6.90;;;10.70;1.00;;;;;;5059710;28;20078;-63
2022/12/01 12:43:23;;;;;;;10.38;6.35;;;10.80;1.00;;;;;;5060060;28;20549;-64
2022/12/01 12:45:59;;;;;;;8.75;5.60;;;10.90;1.00;;;;;;5063712;28;20040;-66
2022/12/01 12:48:27;;;;;;;6.57;4.82;;;10.80;1.00;;;;;;5064989;28;20040;-64
2022/12/01 12:51:31;;;;;;;9.25;5.60;;;10.70;1.00;;;;;;5067284;28;20418;-64
2022/12/01 12:54:22;;;;;;;8.32;5.60;;;10.60;1.00;;;;;;5040579;28;20132;-63
2022/12/01 12:56:53;;;;;;;9.82;5.60;;;10.50;1.00;;;;;;5058045;28;20045;-63